createdAt,value
2023-03-31T00:00:35.494Z,99819.63
2023-03-31T00:03:11.132Z,99811.97
2023-03-31T00:05:48.291Z,99811.31
2023-03-31T00:08:21.516Z,99799.88
2023-03-31T00:10:52.215Z,99816.34
2023-03-31T00:13:22.788Z,99799.88
2023-03-31T00:15:58.939Z,99819.88
2023-03-31T00:18:30.163Z,99801.97
2023-03-31T00:21:14.823Z,99801.13
2023-03-31T00:23:47.799Z,99798.13
2023-03-31T00:26:18.304Z,99784.97
2023-03-31T00:28:48.893Z,99769.22
2023-03-31T00:31:19.724Z,99778.69
2023-03-31T00:33:51.256Z,99780.41
2023-03-31T00:36:27.587Z,99769.41
2023-03-31T00:39:03.080Z,99783.78
2023-03-31T00:41:33.743Z,99778.06
2023-03-31T00:44:19.320Z,99773.66
2023-03-31T00:46:55.607Z,99779.44
2023-03-31T00:49:30.330Z,99781.09
2023-03-31T00:52:08.100Z,99768.41
2023-03-31T00:54:41.937Z,99770.50
2023-03-31T00:57:13.473Z,99753.72
2023-03-31T00:59:48.481Z,99758.56
2023-03-31T01:02:21.099Z,99725.13
2023-03-31T01:04:56.068Z,99761.97
2023-03-31T01:07:33.740Z,99760.72
2023-03-31T01:10:08.988Z,99748.00
2023-03-31T01:12:42.935Z,99747.56
2023-03-31T01:15:14.615Z,99742.63
2023-03-31T01:17:47.585Z,99740.84
2023-03-31T01:20:27.671Z,99726.41
2023-03-31T01:23:28.445Z,99726.41
2023-03-31T01:26:29.184Z,99721.09
2023-03-31T01:29:06.773Z,99718.91
2023-03-31T01:32:07.199Z,99709.03
2023-03-31T01:35:20.039Z,99697.16
2023-03-31T01:38:35.668Z,99701.03
2023-03-31T01:41:22.912Z,99695.31
2023-03-31T01:44:01.816Z,99696.59
2023-03-31T01:46:39.037Z,99689.69
2023-03-31T01:49:20.606Z,99684.66
2023-03-31T01:52:00.356Z,99692.00
2023-03-31T01:54:40.222Z,99688.22
2023-03-31T01:57:19.378Z,99667.84
2023-03-31T02:00:00.587Z,99673.13
2023-03-31T02:02:37.354Z,99644.28
2023-03-31T02:05:13.756Z,99651.69
2023-03-31T02:07:48.250Z,99648.75
2023-03-31T02:10:20.780Z,99642.88
2023-03-31T02:12:54.788Z,99647.47
2023-03-31T02:15:29.987Z,99642.84
2023-03-31T02:18:06.329Z,99642.75
2023-03-31T02:20:37.131Z,99645.03
2023-03-31T02:23:08.382Z,99639.84
2023-03-31T02:25:46.536Z,99633.19
2023-03-31T02:28:24.221Z,99627.06
2023-03-31T02:31:06.671Z,99620.25
2023-03-31T02:33:37.653Z,99604.25
2023-03-31T02:36:09.971Z,99634.13
2023-03-31T02:38:47.902Z,99618.94
2023-03-31T02:41:18.920Z,99606.50
2023-03-31T02:43:52.126Z,99616.09
2023-03-31T02:46:22.814Z,99605.59
2023-03-31T02:48:57.207Z,99602.34
2023-03-31T02:51:40.690Z,99600.34
2023-03-31T02:54:34.451Z,99591.59
2023-03-31T02:57:30.225Z,99595.50
2023-03-31T03:00:14.250Z,99591.97
2023-03-31T03:03:05.896Z,99588.34
2023-03-31T03:05:46.091Z,99589.34
2023-03-31T03:08:55.764Z,99588.06
2023-03-31T03:11:34.656Z,99573.41
2023-03-31T03:14:15.983Z,99578.91
2023-03-31T03:16:53.965Z,99568.72
2023-03-31T03:19:26.670Z,99573.22
2023-03-31T03:21:57.425Z,99567.41
2023-03-31T03:24:29.874Z,99566.56
2023-03-31T03:27:00.633Z,99545.84
2023-03-31T03:29:31.307Z,99552.44
2023-03-31T03:32:04.618Z,99553.97
2023-03-31T03:34:35.255Z,99552.72
2023-03-31T03:37:05.998Z,99543.31
2023-03-31T03:39:36.668Z,99536.94
2023-03-31T03:42:07.726Z,99539.34
2023-03-31T03:44:38.302Z,99530.69
2023-03-31T03:47:11.793Z,99525.41
2023-03-31T03:49:42.399Z,99512.50
2023-03-31T03:52:13.230Z,99509.84
2023-03-31T03:54:43.905Z,99506.38
2023-03-31T03:57:14.735Z,99500.34
2023-03-31T03:59:45.712Z,99490.16
2023-03-31T04:02:19.061Z,99485.44
2023-03-31T04:04:50.209Z,99483.34
2023-03-31T04:07:20.878Z,99482.13
2023-03-31T04:09:51.410Z,99476.38
2023-03-31T04:12:22.159Z,99479.91
2023-03-31T04:14:52.900Z,99466.13
2023-03-31T04:17:33.216Z,99466.00
2023-03-31T04:20:06.061Z,99456.84
2023-03-31T04:22:41.257Z,99450.13
2023-03-31T04:25:16.747Z,99447.63
2023-03-31T04:27:54.889Z,99441.41
2023-03-31T04:30:31.167Z,99431.94
2023-03-31T04:33:06.876Z,99419.66
2023-03-31T04:35:52.858Z,99420.13
2023-03-31T04:38:27.390Z,99414.09
2023-03-31T04:40:58.260Z,99402.72
2023-03-31T04:43:29.167Z,99390.47
2023-03-31T04:45:59.917Z,99387.06
2023-03-31T04:48:33.113Z,99393.63
2023-03-31T04:51:03.806Z,99386.81
2023-03-31T04:53:34.740Z,99372.63
2023-03-31T04:56:06.158Z,99358.41
2023-03-31T04:58:37.083Z,99362.56
2023-03-31T05:01:09.270Z,99361.50
2023-03-31T05:03:42.664Z,99350.19
2023-03-31T05:06:13.476Z,99348.78
2023-03-31T05:08:44.243Z,99345.50
2023-03-31T05:11:14.894Z,99332.38
2023-03-31T05:13:45.733Z,99333.25
2023-03-31T05:16:17.650Z,99336.31
2023-03-31T05:18:50.954Z,99334.66
2023-03-31T05:21:23.551Z,99332.78
2023-03-31T05:23:54.262Z,99327.94
2023-03-31T05:26:25.588Z,99337.78
2023-03-31T05:28:57.231Z,99335.69
2023-03-31T05:31:28.316Z,99335.28
2023-03-31T05:34:01.710Z,99336.50
2023-03-31T05:36:32.422Z,99343.97
2023-03-31T05:39:03.194Z,99334.44
2023-03-31T05:41:33.672Z,99330.38
2023-03-31T05:44:05.096Z,99321.81
2023-03-31T05:46:36.012Z,99310.53
2023-03-31T05:49:09.306Z,99319.41
2023-03-31T05:51:39.883Z,99329.16
2023-03-31T05:54:10.877Z,99324.56
2023-03-31T05:56:41.844Z,99321.06
2023-03-31T05:59:12.498Z,99321.16
2023-03-31T06:01:43.710Z,99317.00
2023-03-31T06:04:17.073Z,99313.41
2023-03-31T06:06:50.559Z,99302.56
2023-03-31T06:09:21.549Z,99307.59
2023-03-31T06:11:52.370Z,99293.91
2023-03-31T06:14:22.891Z,99283.84
2023-03-31T06:16:54.487Z,99284.19
2023-03-31T06:19:29.312Z,99285.91
2023-03-31T06:21:59.851Z,99280.03
2023-03-31T06:24:30.474Z,99278.34
2023-03-31T06:27:01.211Z,99277.59
2023-03-31T06:29:31.859Z,99260.72
2023-03-31T06:32:02.538Z,99263.25
2023-03-31T06:34:35.908Z,99272.91
2023-03-31T06:37:06.612Z,99270.38
2023-03-31T06:39:37.465Z,99247.16
2023-03-31T06:42:08.083Z,99269.31
2023-03-31T06:44:44.564Z,99266.63
2023-03-31T06:47:15.167Z,99261.56
2023-03-31T06:49:48.773Z,99261.38
2023-03-31T06:52:19.396Z,99263.75
2023-03-31T06:54:49.956Z,99262.91
2023-03-31T06:57:21.163Z,99264.22
2023-03-31T06:59:52.196Z,99246.75
2023-03-31T07:02:23.722Z,99243.34
2023-03-31T07:04:57.109Z,99237.56
2023-03-31T07:07:29.942Z,99239.88
2023-03-31T07:10:00.838Z,99235.63
2023-03-31T07:12:31.946Z,99231.78
2023-03-31T07:15:02.664Z,99226.75
2023-03-31T07:17:33.272Z,99219.84
2023-03-31T07:20:08.519Z,99216.56
2023-03-31T07:22:39.076Z,99214.34
2023-03-31T07:25:13.137Z,99215.56
2023-03-31T07:27:44.024Z,99214.41
2023-03-31T07:30:17.180Z,99214.41
2023-03-31T07:32:49.806Z,99212.50
2023-03-31T07:35:23.852Z,99207.13
2023-03-31T07:37:55.190Z,99211.06
2023-03-31T07:40:30.869Z,99201.88
2023-03-31T07:43:02.169Z,99195.00
2023-03-31T07:45:33.261Z,99190.28
2023-03-31T07:48:03.996Z,99183.59
2023-03-31T07:50:37.377Z,99184.78
2023-03-31T07:53:15.193Z,99175.38
2023-03-31T07:55:45.912Z,99174.44
2023-03-31T07:58:16.544Z,99172.81
2023-03-31T08:00:47.380Z,99167.41
2023-03-31T08:03:18.288Z,99162.38
2023-03-31T08:06:12.903Z,99157.41
2023-03-31T08:08:43.946Z,99158.22
2023-03-31T08:11:14.518Z,99143.97
2023-03-31T08:13:45.166Z,99145.72
2023-03-31T08:16:16.081Z,99139.69
2023-03-31T08:18:47.298Z,99127.75
2023-03-31T08:21:23.778Z,99121.66
2023-03-31T08:23:57.257Z,99106.91
2023-03-31T08:26:28.617Z,99123.19
2023-03-31T08:29:01.634Z,99114.09
2023-03-31T08:31:33.476Z,99110.13
2023-03-31T08:34:04.816Z,99105.59
2023-03-31T08:36:38.426Z,99099.34
2023-03-31T08:39:09.525Z,99093.31
2023-03-31T08:41:50.293Z,99085.84
2023-03-31T08:44:28.617Z,99082.03
2023-03-31T08:47:02.678Z,99083.66
2023-03-31T08:49:42.280Z,99079.13
2023-03-31T08:52:20.769Z,99072.81
2023-03-31T08:54:54.872Z,99060.78
2023-03-31T08:57:28.249Z,99071.59
2023-03-31T09:00:07.089Z,99064.00
2023-03-31T09:02:48.986Z,99066.63
2023-03-31T09:05:59.255Z,99055.94
2023-03-31T09:08:39.890Z,99062.06
2023-03-31T09:11:16.219Z,99059.94
2023-03-31T09:14:14.712Z,99073.41
2023-03-31T09:16:52.130Z,99064.91
2023-03-31T09:19:34.031Z,99056.69
2023-03-31T09:22:06.008Z,99058.72
2023-03-31T09:24:48.819Z,99054.13
2023-03-31T09:27:20.249Z,99054.81
2023-03-31T09:29:54.615Z,99050.53
2023-03-31T09:32:28.364Z,99045.41
2023-03-31T09:35:03.997Z,99046.47
2023-03-31T09:37:36.207Z,99041.66
2023-03-31T09:40:11.821Z,99039.22
2023-03-31T09:42:42.592Z,99042.03
2023-03-31T09:45:19.232Z,99032.13
2023-03-31T09:47:54.246Z,99032.13
2023-03-31T09:50:26.904Z,99013.44
2023-03-31T09:53:00.901Z,99031.06
2023-03-31T09:55:44.809Z,99022.53
2023-03-31T09:58:17.697Z,99025.81
2023-03-31T10:01:02.575Z,99008.88
2023-03-31T10:03:36.971Z,99016.94
2023-03-31T10:06:13.121Z,99005.88
2023-03-31T10:08:45.966Z,99005.00
2023-03-31T10:11:19.274Z,98991.50
2023-03-31T10:13:53.260Z,99001.97
2023-03-31T10:16:33.082Z,99005.94
2023-03-31T10:19:23.418Z,99007.38
2023-03-31T10:22:00.960Z,99000.41
2023-03-31T10:24:41.178Z,98997.78
2023-03-31T10:27:24.536Z,98997.13
2023-03-31T10:29:56.719Z,98989.09
2023-03-31T10:32:30.225Z,98999.16
2023-03-31T10:35:07.731Z,98998.38
2023-03-31T10:37:40.235Z,98991.88
2023-03-31T10:40:18.736Z,98997.97
2023-03-31T10:43:03.475Z,98999.72
2023-03-31T10:45:39.367Z,98995.75
2023-03-31T10:48:21.158Z,98994.38
2023-03-31T10:50:51.944Z,98986.34
2023-03-31T10:53:23.394Z,98996.13
2023-03-31T10:56:08.633Z,98993.81
2023-03-31T10:59:15.667Z,98989.09
2023-03-31T11:02:00.280Z,98986.66
2023-03-31T11:04:48.624Z,98989.31
2023-03-31T11:07:34.168Z,98994.06
2023-03-31T11:10:21.774Z,98995.72
2023-03-31T11:12:59.875Z,98950.00
2023-03-31T11:15:42.660Z,98985.84
2023-03-31T11:18:32.648Z,98968.50
2023-03-31T11:21:14.357Z,98987.69
2023-03-31T11:23:47.714Z,98991.66
2023-03-31T11:26:25.205Z,98995.91
2023-03-31T11:29:07.988Z,98995.25
2023-03-31T11:31:52.868Z,98992.06
2023-03-31T11:34:45.583Z,98989.69
2023-03-31T11:37:41.881Z,98986.59
2023-03-31T11:40:44.968Z,98984.16
2023-03-31T11:43:23.512Z,98983.13
2023-03-31T11:45:59.278Z,98974.53
2023-03-31T11:48:40.390Z,98978.09
2023-03-31T11:51:17.673Z,98966.28
2023-03-31T11:53:52.315Z,98962.56
2023-03-31T11:56:24.638Z,98963.66
2023-03-31T11:58:57.365Z,98968.22
2023-03-31T12:01:35.021Z,98970.81
2023-03-31T12:04:21.215Z,98967.88
2023-03-31T12:06:53.351Z,98961.97
2023-03-31T12:09:30.626Z,98968.66
2023-03-31T12:12:08.193Z,98957.09
2023-03-31T12:14:45.276Z,98961.03
2023-03-31T12:17:17.457Z,98958.88
2023-03-31T12:19:55.519Z,98946.16
2023-03-31T12:22:29.246Z,98941.81
2023-03-31T12:25:00.206Z,98938.59
2023-03-31T12:27:35.036Z,98934.31
2023-03-31T12:30:09.763Z,98927.31
2023-03-31T12:32:44.541Z,98920.72
2023-03-31T12:35:23.305Z,98922.91
2023-03-31T12:38:17.611Z,98916.59
2023-03-31T12:40:59.492Z,98904.94
2023-03-31T12:43:50.775Z,98911.91
2023-03-31T12:46:36.740Z,98903.72
2023-03-31T12:49:30.488Z,98896.25
2023-03-31T12:52:11.384Z,98897.81
2023-03-31T12:55:24.593Z,98892.63
2023-03-31T12:57:56.492Z,98885.69
2023-03-31T13:00:30.423Z,98882.34
2023-03-31T13:03:17.178Z,98880.47
2023-03-31T13:05:51.974Z,98854.91
2023-03-31T13:08:57.077Z,98873.97
2023-03-31T13:11:44.862Z,98876.13
2023-03-31T13:14:20.177Z,98869.06
2023-03-31T13:16:54.299Z,98862.81
2023-03-31T13:19:34.756Z,98865.53
2023-03-31T13:22:08.746Z,98856.19
2023-03-31T13:24:42.146Z,98866.75
2023-03-31T13:27:33.981Z,98862.66
2023-03-31T13:30:06.404Z,98857.38
2023-03-31T13:32:39.447Z,98852.53
2023-03-31T13:35:17.647Z,98853.28
2023-03-31T13:38:07.444Z,98851.06
2023-03-31T13:41:02.905Z,98871.59
2023-03-31T13:44:08.584Z,98869.28
2023-03-31T13:47:04.467Z,98866.09
2023-03-31T13:49:56.408Z,98858.88
2023-03-31T13:52:41.941Z,98845.91
2023-03-31T13:55:42.314Z,98854.50
2023-03-31T13:58:45.899Z,98862.09
2023-03-31T14:01:50.158Z,98851.41
2023-03-31T14:04:45.915Z,98847.22
2023-03-31T14:07:21.319Z,98849.06
2023-03-31T14:09:58.532Z,98846.13
2023-03-31T14:12:35.221Z,98844.22
2023-03-31T14:15:07.270Z,98857.13
2023-03-31T14:17:44.109Z,98851.50
2023-03-31T14:20:37.664Z,98851.78
2023-03-31T14:23:21.399Z,98847.34
2023-03-31T14:25:59.204Z,98842.22
2023-03-31T14:28:48.138Z,98848.22
2023-03-31T14:31:24.270Z,98843.34
2023-03-31T14:34:25.254Z,98841.94
2023-03-31T14:37:02.353Z,98847.03
2023-03-31T14:39:36.689Z,98833.81
2023-03-31T14:42:09.267Z,98839.19
2023-03-31T14:44:48.273Z,98832.69
2023-03-31T14:47:23.506Z,98830.97
2023-03-31T14:50:07.669Z,98826.91
2023-03-31T14:52:38.994Z,98829.44
2023-03-31T14:55:16.917Z,98827.41
2023-03-31T14:57:50.186Z,98829.78
2023-03-31T15:00:28.682Z,98826.44
2023-03-31T15:03:01.256Z,98818.66
2023-03-31T15:05:36.877Z,98827.84
2023-03-31T15:08:10.330Z,98833.97
2023-03-31T15:10:44.563Z,98829.25
2023-03-31T15:13:20.704Z,98827.09
2023-03-31T15:15:51.196Z,98832.31
2023-03-31T15:18:21.885Z,98841.56
2023-03-31T15:20:55.042Z,98846.06
2023-03-31T15:23:28.387Z,98846.59
2023-03-31T15:26:02.104Z,98844.69
2023-03-31T15:28:45.632Z,98842.31
2023-03-31T15:31:27.866Z,98834.75
2023-03-31T15:34:30.282Z,98803.22
2023-03-31T15:37:43.804Z,98843.78
2023-03-31T15:40:22.398Z,98845.28
2023-03-31T15:43:06.490Z,98828.13
2023-03-31T15:45:52.956Z,98846.00
2023-03-31T15:48:33.656Z,98841.88
2023-03-31T15:51:08.419Z,98848.56
2023-03-31T15:53:47.990Z,98849.19
2023-03-31T15:56:34.840Z,98829.91
2023-03-31T15:59:08.186Z,98848.56
2023-03-31T16:01:44.897Z,98842.34
2023-03-31T16:04:17.665Z,98848.38
2023-03-31T16:06:50.379Z,98842.94
2023-03-31T16:09:27.519Z,98842.84
2023-03-31T16:12:01.801Z,98838.53
2023-03-31T16:14:36.178Z,98843.81
2023-03-31T16:17:10.712Z,98843.16
2023-03-31T16:19:44.769Z,98839.84
2023-03-31T16:22:19.098Z,98842.06
2023-03-31T16:24:53.056Z,98830.00
2023-03-31T16:27:25.110Z,98833.47
2023-03-31T16:30:09.374Z,98833.91
2023-03-31T16:32:41.246Z,98830.34
2023-03-31T16:35:12.459Z,98824.06
2023-03-31T16:37:44.510Z,98830.34
2023-03-31T16:40:20.245Z,98831.13
2023-03-31T16:42:51.980Z,98828.06
2023-03-31T16:45:22.561Z,98832.59
2023-03-31T16:47:54.816Z,98824.94
2023-03-31T16:50:29.801Z,98836.44
2023-03-31T16:53:01.057Z,98835.94
2023-03-31T16:55:35.056Z,98834.28
2023-03-31T16:58:12.177Z,98837.78
2023-03-31T17:00:43.372Z,98826.00
2023-03-31T17:03:15.086Z,98831.34
2023-03-31T17:05:47.694Z,98836.28
2023-03-31T17:08:18.752Z,98825.16
2023-03-31T17:10:58.375Z,98807.75
2023-03-31T17:13:29.372Z,98831.06
2023-03-31T17:16:08.726Z,98832.44
2023-03-31T17:18:48.828Z,98830.53
2023-03-31T17:21:20.365Z,98828.59
2023-03-31T17:23:51.474Z,98821.59
2023-03-31T17:26:25.048Z,98827.19
2023-03-31T17:28:56.728Z,98835.38
2023-03-31T17:31:27.565Z,98837.50
2023-03-31T17:33:59.838Z,98836.34
2023-03-31T17:36:30.966Z,98844.41
2023-03-31T17:39:02.766Z,98831.06
2023-03-31T17:41:36.084Z,98833.66
2023-03-31T17:44:08.862Z,98840.44
2023-03-31T17:46:39.544Z,98834.72
2023-03-31T17:49:10.221Z,98838.19
2023-03-31T17:51:41.119Z,98841.97
2023-03-31T17:54:11.889Z,98831.41
2023-03-31T17:56:45.570Z,98837.53
2023-03-31T17:59:16.098Z,98842.78
2023-03-31T18:01:47.138Z,98846.25
2023-03-31T18:04:17.897Z,98846.63
2023-03-31T18:06:48.848Z,98847.59
2023-03-31T18:09:20.722Z,98846.72
2023-03-31T18:11:54.300Z,98852.44
2023-03-31T18:14:25.032Z,98853.03
2023-03-31T18:16:55.601Z,98848.84
2023-03-31T18:19:26.408Z,98858.06
2023-03-31T18:21:57.082Z,98850.41
2023-03-31T18:24:27.813Z,98846.53
2023-03-31T18:27:01.785Z,98859.72
2023-03-31T18:29:32.499Z,98862.44
2023-03-31T18:32:03.427Z,98872.69
2023-03-31T18:34:36.817Z,98871.13
2023-03-31T18:37:08.134Z,98877.03
2023-03-31T18:39:39.070Z,98885.56
2023-03-31T18:42:12.325Z,98879.66
2023-03-31T18:44:43.382Z,98889.06
2023-03-31T18:47:13.975Z,98894.00
2023-03-31T18:49:44.673Z,98891.50
2023-03-31T18:52:15.492Z,98881.81
2023-03-31T18:54:46.151Z,98884.22
2023-03-31T18:57:19.717Z,98881.13
2023-03-31T18:59:50.489Z,98879.28
2023-03-31T19:02:21.179Z,98885.69
2023-03-31T19:04:51.862Z,98874.09
2023-03-31T19:07:22.452Z,98884.75
2023-03-31T19:09:53.413Z,98884.44
2023-03-31T19:12:26.766Z,98891.16
2023-03-31T19:14:58.368Z,98881.56
2023-03-31T19:17:29.390Z,98881.09
2023-03-31T19:20:00.107Z,98868.03
2023-03-31T19:22:30.945Z,98883.59
2023-03-31T19:25:02.485Z,98884.06
2023-03-31T19:27:37.149Z,98892.41
2023-03-31T19:30:09.559Z,98879.81
2023-03-31T19:32:40.540Z,98863.75
2023-03-31T19:35:12.034Z,98892.50
2023-03-31T19:37:42.654Z,98874.59
2023-03-31T19:40:13.802Z,98882.25
2023-03-31T19:42:47.237Z,98872.75
2023-03-31T19:45:18.046Z,98873.72
2023-03-31T19:47:48.755Z,98885.53
2023-03-31T19:50:19.964Z,98874.47
2023-03-31T19:52:50.986Z,98868.28
2023-03-31T19:55:21.740Z,98868.38
2023-03-31T19:57:54.962Z,98869.84
2023-03-31T20:00:25.940Z,98866.25
2023-03-31T20:02:57.047Z,98868.97
2023-03-31T20:05:27.989Z,98854.91
2023-03-31T20:07:58.759Z,98871.88
2023-03-31T20:10:29.508Z,98861.53
2023-03-31T20:13:03.038Z,98864.22
2023-03-31T20:15:33.634Z,98859.78
2023-03-31T20:18:04.569Z,98869.84
2023-03-31T20:20:35.399Z,98864.06
2023-03-31T20:23:06.448Z,98863.94
2023-03-31T20:25:39.432Z,98874.00
2023-03-31T20:28:12.736Z,98865.00
2023-03-31T20:30:43.730Z,98869.34
2023-03-31T20:33:15.000Z,98868.38
2023-03-31T20:35:46.929Z,98864.06
2023-03-31T20:38:17.888Z,98878.47
2023-03-31T20:40:49.482Z,98867.50
2023-03-31T20:43:22.721Z,98869.19
2023-03-31T20:46:03.036Z,98874.31
2023-03-31T20:48:34.347Z,98872.38
2023-03-31T20:51:05.423Z,98874.47
2023-03-31T20:53:42.296Z,98863.34
2023-03-31T20:56:13.998Z,98870.03
2023-03-31T20:58:47.905Z,98872.44
2023-03-31T21:01:20.047Z,98864.72
2023-03-31T21:03:51.222Z,98874.09
2023-03-31T21:06:25.543Z,98852.91
2023-03-31T21:08:59.193Z,98869.28
2023-03-31T21:11:30.679Z,98866.44
2023-03-31T21:14:03.984Z,98869.84
2023-03-31T21:16:34.668Z,98865.19
2023-03-31T21:19:05.282Z,98876.72
2023-03-31T21:21:36.115Z,98870.59
2023-03-31T21:24:06.973Z,98871.69
2023-03-31T21:26:37.777Z,98868.00
2023-03-31T21:29:11.202Z,98869.06
2023-03-31T21:31:45.028Z,98874.78
2023-03-31T21:34:16.157Z,98878.94
2023-03-31T21:36:46.830Z,98873.72
2023-03-31T21:39:17.381Z,98869.25
2023-03-31T21:41:49.045Z,98877.00
2023-03-31T21:44:22.217Z,98867.03
2023-03-31T21:46:53.440Z,98878.75
2023-03-31T21:49:24.038Z,98873.59
2023-03-31T21:51:55.254Z,98871.38
2023-03-31T21:54:26.596Z,98871.28
2023-03-31T21:56:57.268Z,98869.53
2023-03-31T21:59:33.244Z,98871.88
2023-03-31T22:02:04.918Z,98868.69
2023-03-31T22:04:36.666Z,98874.19
2023-03-31T22:07:07.915Z,98850.94
2023-03-31T22:09:38.632Z,98869.91
2023-03-31T22:12:09.960Z,98885.47
2023-03-31T22:14:43.674Z,98879.25
2023-03-31T22:17:14.787Z,98882.47
2023-03-31T22:19:46.952Z,98881.59
2023-03-31T22:22:18.223Z,98860.66
2023-03-31T22:24:49.188Z,98881.41
2023-03-31T22:27:19.967Z,98879.66
2023-03-31T22:29:53.185Z,98884.66
2023-03-31T22:32:23.861Z,98879.44
2023-03-31T22:34:55.146Z,98870.84
2023-03-31T22:37:26.001Z,98876.25
2023-03-31T22:39:56.675Z,98875.50
2023-03-31T22:42:27.761Z,98867.53
2023-03-31T22:45:01.489Z,98875.75
2023-03-31T22:47:32.651Z,98859.41
2023-03-31T22:50:04.370Z,98876.16
2023-03-31T22:52:35.565Z,98880.84
2023-03-31T22:55:06.750Z,98880.72
2023-03-31T22:57:37.614Z,98880.72
2023-03-31T23:00:12.934Z,98878.31
2023-03-31T23:02:44.854Z,98885.16
2023-03-31T23:05:15.897Z,98882.97
2023-03-31T23:07:46.953Z,98879.47
2023-03-31T23:10:17.632Z,98881.34
2023-03-31T23:12:48.423Z,98887.34
2023-03-31T23:15:22.164Z,98879.88
2023-03-31T23:17:53.431Z,98884.69
2023-03-31T23:20:24.756Z,98876.50
2023-03-31T23:22:56.838Z,98869.59
2023-03-31T23:25:27.763Z,98871.78
2023-03-31T23:27:58.399Z,98866.91
2023-03-31T23:30:31.811Z,98869.25
2023-03-31T23:33:02.635Z,98875.44
2023-03-31T23:35:33.666Z,98872.75
2023-03-31T23:38:04.524Z,98873.69
2023-03-31T23:40:35.408Z,98874.47
2023-03-31T23:43:08.754Z,98874.88
2023-03-31T23:45:42.117Z,98866.53
2023-03-31T23:48:13.198Z,98859.78
2023-03-31T23:50:43.826Z,98865.28
2023-03-31T23:53:14.495Z,98856.94
2023-03-31T23:55:45.220Z,98849.31
2023-03-31T23:58:15.893Z,98852.97
